Time;durP1;ratioP1;P1;durP2;ratioP2;P2;SDS_P1;SDS_P2;PMS_P1;PMS_P2;Temp;Humidity;BMP_temperature;BMP_pressure;BME280_temperature;BME280_humidity;BME280_pressure;Samples;Min_cycle;Max_cycle;Signal;HPM_P1;HPM_P2
2022/11/27 00:01:52;;;;;;;48.38;24.15;;;;;;;;;;10597303;27;20062;-75
2022/11/27 00:06:52;;;;;;;50.38;23.70;;;;;;;;;;10639817;27;20558;-82
2022/11/27 00:11:53;;;;;;;52.97;23.25;;;;;;;;;;10598717;27;20771;-79
2022/11/27 00:16:53;;;;;;;47.25;22.38;;;;;;;;;;10615157;27;20015;-75
2022/11/27 00:21:53;;;;;;;43.45;23.17;;;;;;;;;;10596744;28;20026;-76
2022/11/27 00:26:53;;;;;;;47.95;22.25;;;;;;;;;;10596270;28;20076;-75
2022/11/27 00:31:55;;;;;;;49.03;24.05;;;;;;;;;;10614015;28;20011;-75
2022/11/27 00:36:55;;;;;;;53.15;23.98;;;;;;;;;;10614418;28;20023;-74
2022/11/27 00:41:55;;;;;;;57.65;23.48;;;;;;;;;;10596396;28;20029;-74
2022/11/27 00:46:57;;;;;;;54.47;24.67;;;;;;;;;;10613905;28;20047;-75
2022/11/27 00:51:57;;;;;;;50.65;25.58;;;;;;;;;;10596064;28;20040;-77
2022/11/27 00:56:57;;;;;;;47.10;24.20;;;;;;;;;;10595807;28;20555;-78
2022/11/27 01:01:58;;;;;;;50.83;24.58;;;;;;;;;;10595696;28;20015;-80
2022/11/27 01:06:58;;;;;;;50.92;24.33;;;;;;;;;;10594578;28;20015;-78
2022/11/27 01:11:58;;;;;;;47.40;21.40;;;;;;;;;;10595631;28;20015;-75
2022/11/27 01:16:58;;;;;;;48.22;23.38;;;;;;;;;;10595078;28;20538;-75
2022/11/27 01:21:59;;;;;;;51.15;22.80;;;;;;;;;;10600602;27;20108;-77
2022/11/27 01:26:59;;;;;;;53.15;24.73;;;;;;;;;;10604894;27;20023;-74
2022/11/27 01:31:59;;;;;;;49.97;25.02;;;;;;;;;;10605225;27;20114;-75
2022/11/27 01:36:59;;;;;;;60.92;27.85;;;;;;;;;;10602618;27;20041;-76
2022/11/27 01:42:00;;;;;;;54.28;27.08;;;;;;;;;;10603119;27;20076;-75
2022/11/27 01:47:05;;;;;;;57.23;27.07;;;;;;;;;;10615932;27;20031;-73
2022/11/27 01:52:08;;;;;;;62.42;30.27;;;;;;;;;;10628261;27;20300;-73
2022/11/27 01:57:13;;;;;;;56.30;27.95;;;;;;;;;;10617967;27;20031;-76
2022/11/27 02:02:14;;;;;;;54.25;28.45;;;;;;;;;;10603387;27;20029;-77
2022/11/27 02:07:14;;;;;;;59.60;28.83;;;;;;;;;;10619626;27;20021;-76
2022/11/27 02:12:23;;;;;;;56.67;29.55;;;;;;;;;;10619625;27;20023;-75
2022/11/27 02:17:36;;;;;;;71.80;33.47;;;;;;;;;;10601050;27;20023;-75
2022/11/27 02:22:39;;;;;;;78.95;35.60;;;;;;;;;;10600581;27;20047;-77
2022/11/27 02:27:54;;;;;;;59.42;28.85;;;;;;;;;;10575378;28;20494;-75
2022/11/27 02:32:58;;;;;;;35.10;18.52;;;;;;;;;;10574802;27;20022;-76
2022/11/27 02:38:01;;;;;;;44.63;20.27;;;;;;;;;;10600611;27;20494;-79
2022/11/27 02:43:04;;;;;;;37.50;20.00;;;;;;;;;;10599808;27;20405;-79
2022/11/27 02:48:06;;;;;;;39.05;17.13;;;;;;;;;;10618000;27;20023;-76
2022/11/27 02:53:09;;;;;;;40.97;17.85;;;;;;;;;;10599876;27;20016;-77
2022/11/27 02:58:12;;;;;;;32.80;17.63;;;;;;;;;;10600420;27;20110;-75
2022/11/27 03:03:15;;;;;;;35.33;17.20;;;;;;;;;;10593796;27;20034;-79
2022/11/27 03:08:21;;;;;;;35.13;18.10;;;;;;;;;;10586610;27;20357;-73
2022/11/27 03:13:21;;;;;;;39.45;19.13;;;;;;;;;;10617114;27;20440;-75
2022/11/27 03:18:27;;;;;;;35.40;18.90;;;;;;;;;;10617017;27;20026;-75
2022/11/27 03:23:28;;;;;;;39.95;19.73;;;;;;;;;;10598541;27;20442;-79
2022/11/27 03:28:29;;;;;;;39.83;18.58;;;;;;;;;;10599455;27;20023;-76
2022/11/27 03:33:30;;;;;;;42.13;21.08;;;;;;;;;;10613911;27;20024;-74
2022/11/27 03:38:32;;;;;;;51.60;26.90;;;;;;;;;;10597672;27;20023;-83
2022/11/27 03:43:35;;;;;;;63.95;32.33;;;;;;;;;;10597465;27;20706;-76
2022/11/27 03:48:44;;;;;;;74.18;35.83;;;;;;;;;;10620570;27;20024;-73
2022/11/27 03:53:48;;;;;;;73.50;33.00;;;;;;;;;;10602018;27;20019;-75
2022/11/27 03:58:56;;;;;;;80.65;35.75;;;;;;;;;;10599636;27;20027;-76
2022/11/27 04:03:56;;;;;;;;;;;;;;;;;;10565660;28;20036;-74
2022/11/27 04:08:56;;;;;;;71.68;32.20;;;;;;;;;;10554295;28;19908;-76
2022/11/27 04:13:56;;;;;;;70.00;31.52;;;;;;;;;;10596885;27;20380;-76
2022/11/27 04:18:58;;;;;;;72.07;30.75;;;;;;;;;;10616488;27;20550;-75
2022/11/27 04:24:00;;;;;;;64.97;30.23;;;;;;;;;;10595214;28;20071;-74
2022/11/27 04:29:01;;;;;;;61.50;30.13;;;;;;;;;;10590121;28;20513;-74
2022/11/27 04:34:01;;;;;;;69.05;29.77;;;;;;;;;;10554871;28;20030;-76
2022/11/27 04:39:01;;;;;;;73.68;32.78;;;;;;;;;;10590802;28;20437;-75
2022/11/27 04:44:01;;;;;;;68.00;29.83;;;;;;;;;;10614382;28;20050;-77
2022/11/27 04:49:02;;;;;;;71.63;29.42;;;;;;;;;;10575955;28;20027;-76
2022/11/27 04:54:02;;;;;;;64.80;27.58;;;;;;;;;;10576432;27;20027;-75
2022/11/27 04:59:04;;;;;;;67.95;30.45;;;;;;;;;;10623522;27;20102;-77
2022/11/27 05:04:04;;;;;;;70.55;29.38;;;;;;;;;;10605156;27;20061;-75
2022/11/27 05:09:04;;;;;;;80.03;34.63;;;;;;;;;;10603624;27;20027;-74
2022/11/27 05:14:13;;;;;;;75.57;32.13;;;;;;;;;;10604925;27;20019;-72
2022/11/27 05:19:14;;;;;;;79.28;29.60;;;;;;;;;;10572798;27;20759;-76
2022/11/27 05:24:16;;;;;;;76.63;32.80;;;;;;;;;;10626041;27;20039;-77
2022/11/27 05:29:17;;;;;;;81.28;31.63;;;;;;;;;;10603579;27;20510;-75
2022/11/27 05:34:17;;;;;;;68.40;28.05;;;;;;;;;;10621656;27;20383;-75
2022/11/27 05:39:17;;;;;;;76.07;30.10;;;;;;;;;;10602868;27;20116;-76
2022/11/27 05:44:18;;;;;;;68.43;30.80;;;;;;;;;;10603512;27;20411;-74
2022/11/27 05:49:18;;;;;;;73.85;30.65;;;;;;;;;;10639376;27;20034;-75
2022/11/27 05:54:18;;;;;;;64.20;29.63;;;;;;;;;;10642064;27;20011;-73
2022/11/27 05:59:19;;;;;;;67.20;29.58;;;;;;;;;;10635561;27;20027;-74
2022/11/27 06:04:19;;;;;;;71.78;30.15;;;;;;;;;;10624176;27;20053;-75
2022/11/27 06:09:19;;;;;;;72.40;32.20;;;;;;;;;;10601161;27;20082;-73
2022/11/27 06:14:20;;;;;;;77.40;34.28;;;;;;;;;;10593576;27;20027;-75
2022/11/27 06:19:21;;;;;;;81.40;31.48;;;;;;;;;;10542651;28;20030;-75
2022/11/27 06:24:21;;;;;;;89.13;36.28;;;;;;;;;;10616643;27;20051;-75
2022/11/27 06:29:23;;;;;;;84.32;38.38;;;;;;;;;;10618195;27;20027;-74
2022/11/27 06:34:24;;;;;;;82.68;35.13;;;;;;;;;;10600044;27;20015;-79
2022/11/27 06:39:24;;;;;;;76.70;35.95;;;;;;;;;;10588870;27;20027;-78
2022/11/27 06:44:24;;;;;;;78.07;35.72;;;;;;;;;;10621841;27;20417;-75
2022/11/27 06:49:25;;;;;;;78.18;35.83;;;;;;;;;;10622799;27;20405;-79
2022/11/27 06:54:25;;;;;;;75.10;33.13;;;;;;;;;;10584305;27;20482;-81
2022/11/27 06:59:26;;;;;;;75.68;33.72;;;;;;;;;;10560258;28;20027;-78
2022/11/27 07:04:26;;;;;;;72.70;34.22;;;;;;;;;;10570430;28;20023;-79
2022/11/27 07:09:26;;;;;;;72.20;33.53;;;;;;;;;;10589498;27;20034;-76
2022/11/27 07:14:26;;;;;;;72.38;34.22;;;;;;;;;;10619093;27;20023;-77
2022/11/27 07:19:27;;;;;;;68.65;31.77;;;;;;;;;;10596234;27;20113;-72
2022/11/27 07:24:27;;;;;;;79.35;31.10;;;;;;;;;;10585118;27;20054;-75
2022/11/27 07:29:27;;;;;;;71.05;33.50;;;;;;;;;;10573556;27;20027;-75
2022/11/27 07:34:29;;;;;;;74.53;33.35;;;;;;;;;;10560332;27;20224;-74
2022/11/27 07:39:29;;;;;;;72.57;31.95;;;;;;;;;;10577839;27;20680;-74
2022/11/27 07:44:29;;;;;;;80.82;37.60;;;;;;;;;;10578880;27;20015;-76
2022/11/27 07:49:31;;;;;;;87.65;37.65;;;;;;;;;;10588721;27;20135;-75
2022/11/27 07:54:33;;;;;;;77.60;36.25;;;;;;;;;;10601072;27;20026;-74
2022/11/27 07:59:33;;;;;;;80.18;34.63;;;;;;;;;;10599486;27;20474;-77
2022/11/27 08:04:33;;;;;;;84.60;35.47;;;;;;;;;;10580866;27;20027;-77
2022/11/27 08:09:34;;;;;;;89.22;36.15;;;;;;;;;;10596940;27;20023;-76
2022/11/27 08:14:34;;;;;;;73.05;33.58;;;;;;;;;;10597179;27;20015;-78
2022/11/27 08:19:34;;;;;;;74.20;31.23;;;;;;;;;;10597399;27;20156;-77
2022/11/27 08:24:37;;;;;;;58.75;29.45;;;;;;;;;;10597569;28;20042;-75
2022/11/27 08:29:37;;;;;;;70.15;32.03;;;;;;;;;;10599386;27;20025;-77
2022/11/27 08:34:38;;;;;;;67.50;32.08;;;;;;;;;;10605771;27;20023;-76
2022/11/27 08:39:38;;;;;;;69.97;29.80;;;;;;;;;;10745474;22;20545;-76
2022/11/27 08:44:38;;;;;;;76.88;34.38;;;;;;;;;;10622355;27;20577;-76
2022/11/27 08:49:39;;;;;;;65.03;31.00;;;;;;;;;;10623838;27;20399;-76
2022/11/27 08:54:39;;;;;;;79.47;31.50;;;;;;;;;;10634663;27;20015;-79
2022/11/27 08:59:39;;;;;;;63.58;27.80;;;;;;;;;;10635423;27;20031;-75
2022/11/27 09:04:39;;;;;;;62.85;30.25;;;;;;;;;;10622489;27;20026;-76
2022/11/27 09:09:40;;;;;;;60.97;32.55;;;;;;;;;;10620484;27;20115;-75
2022/11/27 09:14:41;;;;;;;65.65;29.70;;;;;;;;;;10628379;27;20025;-81
2022/11/27 09:19:41;;;;;;;66.80;31.85;;;;;;;;;;10623347;27;20387;-76
2022/11/27 09:24:43;;;;;;;67.60;32.30;;;;;;;;;;10622341;27;20470;-80
2022/11/27 09:29:43;;;;;;;67.60;28.77;;;;;;;;;;10610403;27;20023;-76
2022/11/27 09:34:43;;;;;;;69.82;31.77;;;;;;;;;;10619987;27;20406;-76
2022/11/27 09:39:43;;;;;;;58.72;28.52;;;;;;;;;;10631152;27;20593;-75
2022/11/27 09:44:47;;;;;;;61.30;27.75;;;;;;;;;;10623426;27;20544;-75
2022/11/27 09:49:53;;;;;;;46.10;24.00;;;;;;;;;;10620837;27;20020;-75
2022/11/27 09:55:03;;;;;;;46.65;23.92;;;;;;;;;;10621648;27;20022;-80
2022/11/27 10:00:11;;;;;;;52.03;26.00;;;;;;;;;;10621522;27;20015;-75
2022/11/27 10:05:11;;;;;;;;;;;;;;;;;;10620098;27;20394;-76
2022/11/27 10:10:22;;;;;;;44.28;21.02;;;;;;;;;;10603296;27;19904;-72
2022/11/27 10:15:41;;;;;;;53.38;23.52;;;;;;;;;;10630647;27;20015;-73
2022/11/27 10:20:54;;;;;;;47.47;20.15;;;;;;;;;;10640478;27;20019;-73
2022/11/27 10:26:02;;;;;;;40.40;21.10;;;;;;;;;;10611196;27;20038;-84
2022/11/27 10:31:26;;;;;;;40.53;19.63;;;;;;;;;;10620488;27;20083;-74
2022/11/27 10:36:34;;;;;;;41.03;20.58;;;;;;;;;;10611673;27;20023;-75
2022/11/27 10:41:58;;;;;;;37.78;19.60;;;;;;;;;;10613434;27;20597;-77
2022/11/27 10:47:03;;;;;;;38.28;18.20;;;;;;;;;;10617884;27;20027;-76
2022/11/27 10:52:03;;;;;;;43.53;18.45;;;;;;;;;;10600856;27;20015;-73
2022/11/27 10:57:22;;;;;;;30.60;18.13;;;;;;;;;;10614477;27;20509;-74
2022/11/27 11:02:30;;;;;;;33.97;17.02;;;;;;;;;;10618061;27;20102;-77
2022/11/27 11:07:30;;;;;;;41.90;20.33;;;;;;;;;;10619287;27;20019;-83
2022/11/27 11:12:32;;;;;;;47.92;22.25;;;;;;;;;;10616865;27;20034;-76
2022/11/27 11:17:40;;;;;;;43.83;22.52;;;;;;;;;;10588231;27;20098;-76
2022/11/27 11:22:44;;;;;;;38.53;20.48;;;;;;;;;;10601985;27;20440;-78
2022/11/27 11:27:47;;;;;;;38.63;19.75;;;;;;;;;;10619500;27;20027;-79
2022/11/27 11:32:49;;;;;;;40.67;21.23;;;;;;;;;;10593567;27;20523;-77
2022/11/27 11:37:49;;;;;;;48.20;26.25;;;;;;;;;;10585402;27;20023;-81
2022/11/27 11:42:54;;;;;;;39.65;21.08;;;;;;;;;;10615272;27;20047;-78
2022/11/27 11:47:55;;;;;;;45.15;21.40;;;;;;;;;;10614209;27;20076;-76
2022/11/27 11:53:14;;;;;;;31.33;15.60;;;;;;;;;;10614522;27;20486;-80
2022/11/27 11:58:33;;;;;;;39.25;17.65;;;;;;;;;;10614194;27;20021;-78
2022/11/27 12:03:44;;;;;;;40.35;19.02;;;;;;;;;;10583636;27;20027;-77
2022/11/27 12:08:48;;;;;;;31.42;15.00;;;;;;;;;;10615169;27;20023;-82
2022/11/27 12:13:49;;;;;;;23.55;13.02;;;;;;;;;;10615797;27;20482;-81
2022/11/27 12:18:58;;;;;;;28.98;15.05;;;;;;;;;;10614289;27;20023;-78
2022/11/27 12:24:28;;;;;;;30.05;13.38;;;;;;;;;;10616765;27;20021;-78
2022/11/27 12:29:52;;;;;;;30.60;14.45;;;;;;;;;;10614419;28;20043;-75
2022/11/27 12:34:58;;;;;;;28.90;13.32;;;;;;;;;;10617315;28;20027;-71
2022/11/27 12:40:07;;;;;;;24.27;12.10;;;;;;;;;;10614184;27;20051;-75
2022/11/27 12:45:30;;;;;;;29.08;14.10;;;;;;;;;;10632096;27;20076;-72
2022/11/27 12:50:30;;;;;;;30.15;14.10;;;;;;;;;;10573937;28;20017;-79
2022/11/27 12:55:32;;;;;;;28.35;13.80;;;;;;;;;;10603635;28;20107;-78
2022/11/27 13:00:36;;;;;;;30.00;14.30;;;;;;;;;;10602349;28;20402;-81
2022/11/27 13:05:44;;;;;;;35.13;16.27;;;;;;;;;;10600777;28;20099;-80
2022/11/27 13:11:19;;;;;;;33.00;16.67;;;;;;;;;;10615786;28;20042;-80
2022/11/27 13:16:26;;;;;;;33.78;15.30;;;;;;;;;;10588965;27;20039;-83
2022/11/27 13:21:32;;;;;;;32.50;16.45;;;;;;;;;;10593999;27;20075;-80
2022/11/27 13:26:52;;;;;;;33.97;17.13;;;;;;;;;;10625595;27;20018;-81
2022/11/27 13:31:54;;;;;;;36.30;17.98;;;;;;;;;;10613101;27;20419;-74
2022/11/27 13:37:00;;;;;;;37.10;16.85;;;;;;;;;;10615473;27;20029;-80
2022/11/27 13:42:02;;;;;;;37.22;18.80;;;;;;;;;;10606607;27;20051;-80
2022/11/27 13:47:11;;;;;;;38.95;19.38;;;;;;;;;;10616768;27;20269;-77
2022/11/27 13:52:16;;;;;;;37.90;17.95;;;;;;;;;;10604441;27;20019;-78
2022/11/27 13:57:17;;;;;;;32.97;16.42;;;;;;;;;;10615554;27;20023;-77
2022/11/27 14:02:21;;;;;;;27.00;14.77;;;;;;;;;;10615474;27;20157;-82
2022/11/27 14:07:22;;;;;;;28.65;15.40;;;;;;;;;;10603255;27;20030;-76
2022/11/27 14:12:32;;;;;;;28.85;14.13;;;;;;;;;;10615951;27;20136;-75
2022/11/27 14:17:39;;;;;;;26.05;12.98;;;;;;;;;;10596957;27;20103;-77
2022/11/27 14:22:42;;;;;;;31.37;12.63;;;;;;;;;;10616177;27;20041;-76
2022/11/27 14:27:42;;;;;;;35.65;17.25;;;;;;;;;;10598490;27;20277;-79
2022/11/27 14:32:43;;;;;;;36.97;13.20;;;;;;;;;;10614771;27;20390;-79
2022/11/27 14:37:43;;;;;;;21.88;11.35;;;;;;;;;;10614305;27;20023;-81
2022/11/27 14:42:43;;;;;;;20.58;11.05;;;;;;;;;;10606642;27;20055;-80
2022/11/27 14:47:51;;;;;;;13.70;7.65;;;;;;;;;;10598036;27;20035;-77
2022/11/27 14:52:54;;;;;;;14.95;6.85;;;;;;;;;;10606278;27;20029;-80
2022/11/27 14:57:55;;;;;;;11.88;5.82;;;;;;;;;;10598481;27;20031;-79
2022/11/27 15:03:05;;;;;;;14.20;6.53;;;;;;;;;;10611187;27;20405;-74
2022/11/27 15:08:07;;;;;;;9.30;4.70;;;;;;;;;;10631221;27;20110;-72
2022/11/27 15:13:17;;;;;;;11.13;6.10;;;;;;;;;;10614118;27;20123;-76
2022/11/27 15:18:20;;;;;;;12.38;5.32;;;;;;;;;;10626608;27;20083;-82
2022/11/27 15:23:25;;;;;;;7.88;4.10;;;;;;;;;;10597368;27;20027;-75
2022/11/27 15:28:26;;;;;;;17.00;5.32;;;;;;;;;;10597840;27;20110;-77
2022/11/27 15:33:29;;;;;;;13.80;5.28;;;;;;;;;;10595976;27;20096;-77
2022/11/27 15:38:30;;;;;;;13.50;5.03;;;;;;;;;;10715589;22;20015;-75
2022/11/27 15:43:31;;;;;;;11.60;5.82;;;;;;;;;;10551171;28;20031;-76
2022/11/27 15:48:31;;;;;;;14.98;6.57;;;;;;;;;;10553906;28;20468;-77
2022/11/27 15:53:32;;;;;;;13.88;7.28;;;;;;;;;;10562006;28;20031;-72
2022/11/27 15:58:33;;;;;;;18.65;7.60;;;;;;;;;;10560447;28;20028;-72
2022/11/27 16:03:33;;;;;;;20.70;7.18;;;;;;;;;;10579468;28;20023;-75
2022/11/27 16:08:36;;;;;;;11.48;6.70;;;;;;;;;;10544172;28;20021;-72
2022/11/27 16:13:37;;;;;;;15.95;6.80;;;;;;;;;;10562541;28;20027;-78
2022/11/27 16:18:39;;;;;;;12.52;6.32;;;;;;;;;;10580304;28;20023;-80
2022/11/27 16:23:42;;;;;;;11.60;6.20;;;;;;;;;;10558427;28;20076;-79
2022/11/27 16:28:49;;;;;;;9.95;6.22;;;;;;;;;;10535686;28;20582;-76
2022/11/27 16:33:50;;;;;;;11.27;5.07;;;;;;;;;;10546130;28;20024;-76
2022/11/27 16:38:51;;;;;;;9.85;5.20;;;;;;;;;;10526140;28;20131;-76
2022/11/27 16:43:54;;;;;;;14.32;6.30;;;;;;;;;;10534544;28;20031;-77
2022/11/27 16:48:57;;;;;;;10.18;5.13;;;;;;;;;;10515300;28;20543;-79
2022/11/27 16:53:59;;;;;;;13.57;5.20;;;;;;;;;;10534839;28;20059;-75
2022/11/27 16:59:01;;;;;;;12.23;6.65;;;;;;;;;;10540585;28;20559;-79
2022/11/27 17:04:15;;;;;;;13.45;6.28;;;;;;;;;;10556611;28;20031;-79
2022/11/27 17:09:16;;;;;;;12.07;6.10;;;;;;;;;;10549247;28;20024;-79
2022/11/27 17:14:18;;;;;;;11.77;5.40;;;;;;;;;;10539190;28;20028;-75
2022/11/27 17:19:22;;;;;;;12.55;7.25;;;;;;;;;;10515652;28;20031;-75
2022/11/27 17:24:24;;;;;;;17.75;8.50;;;;;;;;;;10538753;28;20155;-71
2022/11/27 17:29:27;;;;;;;21.02;9.43;;;;;;;;;;10578574;27;20040;-74
2022/11/27 17:34:28;;;;;;;23.58;11.30;;;;;;;;;;10539305;28;20084;-78
2022/11/27 17:39:28;;;;;;;29.83;11.95;;;;;;;;;;10549172;28;20044;-78
2022/11/27 17:44:31;;;;;;;32.22;13.52;;;;;;;;;;10538946;28;20567;-80
2022/11/27 17:49:32;;;;;;;28.50;12.15;;;;;;;;;;10517898;28;20137;-77
2022/11/27 17:54:34;;;;;;;20.65;10.77;;;;;;;;;;10532081;28;20112;-75
2022/11/27 17:59:35;;;;;;;24.27;12.48;;;;;;;;;;10546270;28;20020;-80
2022/11/27 18:04:37;;;;;;;27.65;14.25;;;;;;;;;;10545857;28;20380;-80
2022/11/27 18:09:38;;;;;;;32.45;14.60;;;;;;;;;;10536570;28;20024;-75
2022/11/27 18:14:42;;;;;;;30.75;11.95;;;;;;;;;;10547638;28;20419;-76
2022/11/27 18:19:43;;;;;;;24.10;11.52;;;;;;;;;;10540873;28;20100;-74
2022/11/27 18:24:47;;;;;;;20.52;10.32;;;;;;;;;;10552203;28;20150;-82
2022/11/27 18:29:49;;;;;;;18.63;10.10;;;;;;;;;;10559633;28;20028;-80
2022/11/27 18:34:50;;;;;;;26.08;11.93;;;;;;;;;;10552387;28;20540;-79
2022/11/27 18:39:51;;;;;;;27.73;10.82;;;;;;;;;;10518474;28;20566;-76
2022/11/27 18:44:52;;;;;;;26.13;12.55;;;;;;;;;;10525165;28;20150;-79
2022/11/27 18:49:57;;;;;;;27.83;12.60;;;;;;;;;;10559120;28;20031;-77
2022/11/27 18:55:02;;;;;;;21.15;12.20;;;;;;;;;;10546390;28;20077;-75
2022/11/27 19:00:03;;;;;;;19.75;9.30;;;;;;;;;;10557003;28;20028;-79
2022/11/27 19:05:10;;;;;;;15.88;8.32;;;;;;;;;;10572307;27;20038;-79
2022/11/27 19:10:12;;;;;;;16.10;9.73;;;;;;;;;;10516097;28;20020;-80
2022/11/27 19:15:13;;;;;;;16.35;8.63;;;;;;;;;;10545407;28;20521;-80
2022/11/27 19:20:14;;;;;;;18.58;8.40;;;;;;;;;;10512141;28;20026;-81
2022/11/27 19:25:16;;;;;;;13.43;7.32;;;;;;;;;;10513403;28;20026;-80
2022/11/27 19:30:20;;;;;;;10.93;5.90;;;;;;;;;;10537723;28;20024;-70
2022/11/27 19:35:24;;;;;;;8.48;4.32;;;;;;;;;;10545279;28;20027;-71
2022/11/27 19:40:26;;;;;;;9.27;5.60;;;;;;;;;;10557603;28;20051;-72
2022/11/27 19:45:28;;;;;;;13.68;6.03;;;;;;;;;;10573186;28;20032;-77
2022/11/27 19:50:29;;;;;;;9.75;6.18;;;;;;;;;;10548841;28;20028;-80
2022/11/27 19:55:30;;;;;;;15.95;7.38;;;;;;;;;;10535955;28;20461;-75
2022/11/27 20:00:31;;;;;;;10.15;5.15;;;;;;;;;;10535395;28;20027;-83
2022/11/27 20:05:32;;;;;;;7.80;4.88;;;;;;;;;;10522826;28;20259;-80
2022/11/27 20:10:35;;;;;;;10.60;5.90;;;;;;;;;;10536191;28;20028;-79
2022/11/27 20:15:38;;;;;;;11.57;5.10;;;;;;;;;;10554245;28;20027;-79
2022/11/27 20:20:38;;;;;;;12.30;4.70;;;;;;;;;;10554429;28;20032;-79
2022/11/27 20:25:42;;;;;;;9.25;4.97;;;;;;;;;;10561808;28;20067;-76
2022/11/27 20:30:44;;;;;;;11.05;6.88;;;;;;;;;;10545906;28;20032;-82
2022/11/27 20:35:45;;;;;;;12.00;5.53;;;;;;;;;;10555151;28;20028;-78
2022/11/27 20:40:48;;;;;;;11.77;6.20;;;;;;;;;;10542122;28;20040;-79
2022/11/27 20:45:54;;;;;;;18.65;7.68;;;;;;;;;;10552888;28;20032;-83
2022/11/27 20:50:54;;;;;;;12.55;7.88;;;;;;;;;;10532328;28;20487;-80
2022/11/27 20:56:04;;;;;;;16.02;9.40;;;;;;;;;;10561421;28;20020;-85
2022/11/27 21:01:12;;;;;;;14.82;8.73;;;;;;;;;;10529023;28;20378;-82
2022/11/27 21:06:17;;;;;;;19.80;9.38;;;;;;;;;;10547966;28;20020;-81
2022/11/27 21:11:26;;;;;;;16.20;9.15;;;;;;;;;;10544219;28;20020;-77
2022/11/27 21:16:28;;;;;;;16.17;8.47;;;;;;;;;;10543798;28;20102;-78
2022/11/27 21:21:30;;;;;;;14.38;7.53;;;;;;;;;;10538430;28;20851;-83
2022/11/27 21:26:31;;;;;;;14.55;7.55;;;;;;;;;;10540137;28;20372;-81
2022/11/27 21:31:32;;;;;;;16.42;9.05;;;;;;;;;;10562201;28;20074;-78
2022/11/27 21:36:34;;;;;;;19.73;8.77;;;;;;;;;;10544591;28;20032;-82
2022/11/27 21:41:36;;;;;;;21.67;9.70;;;;;;;;;;10554920;28;20105;-74
2022/11/27 21:46:54;;;;;;;17.02;8.90;;;;;;;;;;10588821;28;20134;-77
2022/11/27 21:52:00;;;;;;;22.35;10.82;;;;;;;;;;10588206;28;20022;-74
2022/11/27 21:57:01;;;;;;;22.42;9.65;;;;;;;;;;10553999;28;20110;-75
2022/11/27 22:02:01;;;;;;;18.23;8.63;;;;;;;;;;10551029;28;20151;-77
2022/11/27 22:07:01;;;;;;;23.77;9.95;;;;;;;;;;10546351;28;20012;-80
2022/11/27 22:12:01;;;;;;;14.32;8.77;;;;;;;;;;10530278;28;20027;-79
2022/11/27 22:17:02;;;;;;;20.43;9.47;;;;;;;;;;10543877;28;20085;-83
2022/11/27 22:22:02;;;;;;;18.42;9.70;;;;;;;;;;10542109;28;20249;-83
2022/11/27 22:27:02;;;;;;;19.70;10.25;;;;;;;;;;10547745;28;20110;-76
2022/11/27 22:32:03;;;;;;;15.83;8.77;;;;;;;;;;10533364;28;20069;-78
2022/11/27 22:37:04;;;;;;;13.82;7.90;;;;;;;;;;10517504;28;20024;-82
2022/11/27 22:42:05;;;;;;;17.95;7.70;;;;;;;;;;10515269;28;20063;-77
2022/11/27 22:47:06;;;;;;;12.50;7.13;;;;;;;;;;10536878;28;20524;-77
2022/11/27 22:52:06;;;;;;;12.63;6.30;;;;;;;;;;10576538;28;20058;-76
2022/11/27 22:57:08;;;;;;;18.48;7.50;;;;;;;;;;10536331;28;20107;-76
2022/11/27 23:02:08;;;;;;;16.83;6.25;;;;;;;;;;10515170;28;20538;-76
2022/11/27 23:07:08;;;;;;;18.40;7.00;;;;;;;;;;10533001;28;20016;-78
2022/11/27 23:12:09;;;;;;;13.60;7.68;;;;;;;;;;10532182;28;20090;-77
2022/11/27 23:17:09;;;;;;;15.52;7.80;;;;;;;;;;10535872;28;20030;-79
2022/11/27 23:22:09;;;;;;;19.88;9.93;;;;;;;;;;10514723;28;20035;-78
2022/11/27 23:27:09;;;;;;;21.58;10.63;;;;;;;;;;10514535;28;20028;-77
2022/11/27 23:32:09;;;;;;;22.02;12.30;;;;;;;;;;10514393;28;20115;-75
2022/11/27 23:37:10;;;;;;;27.02;13.23;;;;;;;;;;10513891;28;20031;-74
2022/11/27 23:42:10;;;;;;;22.15;13.15;;;;;;;;;;10522084;28;20047;-79
2022/11/27 23:47:10;;;;;;;30.17;13.65;;;;;;;;;;10548506;28;20031;-75
2022/11/27 23:52:11;;;;;;;21.40;10.43;;;;;;;;;;10548215;28;20020;-74
2022/11/27 23:57:11;;;;;;;27.17;12.20;;;;;;;;;;10537539;28;20016;-76
